createdAt,value
2018-08-12T00:00:52.566Z,87.01
2018-08-12T00:01:52.557Z,87.01
2018-08-12T00:02:52.550Z,87.39
2018-08-12T00:03:52.294Z,87.2
2018-08-12T00:04:52.286Z,87.2
2018-08-12T00:05:52.531Z,87.39
2018-08-12T00:06:52.526Z,87.29
2018-08-12T00:07:52.521Z,87.39
2018-08-12T00:08:52.526Z,87.77
2018-08-12T00:09:52.506Z,87.87
2018-08-12T00:10:52.506Z,87.96
2018-08-12T00:11:52.549Z,87.96
2018-08-12T00:12:52.519Z,88.06
2018-08-12T00:13:52.480Z,87.68
2018-08-12T00:14:52.473Z,87.68
2018-08-12T00:15:52.467Z,88.06
2018-08-12T00:16:52.457Z,87.87
2018-08-12T00:17:52.453Z,88.54
2018-08-12T00:18:52.446Z,88.44
2018-08-12T00:19:52.445Z,88.25
2018-08-12T00:20:52.432Z,88.44
2018-08-12T00:21:52.426Z,88.54
2018-08-12T00:22:52.419Z,88.54
2018-08-12T00:23:52.413Z,88.63
2018-08-12T00:24:52.410Z,88.54
2018-08-12T00:25:52.399Z,89.11
2018-08-12T00:26:52.392Z,88.68
2018-08-12T00:27:52.397Z,88.78
2018-08-12T00:28:52.381Z,88.82
2018-08-12T00:29:52.421Z,89.01
2018-08-12T00:30:52.366Z,89.35
2018-08-12T00:31:52.362Z,89.11
2018-08-12T00:32:52.356Z,89.3
2018-08-12T00:33:52.347Z,89.45
2018-08-12T00:34:52.338Z,89.25
2018-08-12T00:35:52.337Z,89.49
2018-08-12T00:36:52.328Z,89.25
2018-08-12T00:37:52.325Z,89.35
2018-08-12T00:38:52.312Z,89.16
2018-08-12T00:39:52.313Z,89.25
2018-08-12T00:40:52.299Z,89.25
2018-08-12T00:41:52.294Z,89.16
2018-08-12T00:42:52.285Z,89.35
2018-08-12T00:43:52.279Z,89.35
2018-08-12T00:44:52.272Z,89.06
2018-08-12T00:45:52.270Z,89.25
2018-08-12T00:46:52.257Z,89.06
2018-08-12T00:47:52.252Z,88.87
2018-08-12T00:48:52.248Z,88.87
2018-08-12T00:49:52.237Z,89.06
2018-08-12T00:50:51.980Z,89.16
2018-08-12T00:51:52.223Z,89.83
2018-08-12T00:52:52.224Z,89.45
2018-08-12T00:53:52.209Z,89.54
2018-08-12T00:54:52.207Z,90.21
2018-08-12T00:55:52.200Z,89.83
2018-08-12T00:56:52.188Z,89.83
2018-08-12T00:57:52.213Z,90.4
2018-08-12T00:58:52.178Z,90.5
2018-08-12T00:59:52.170Z,90.5
2018-08-12T01:00:52.161Z,90.02
2018-08-12T01:01:52.158Z,90.21
2018-08-12T01:02:51.897Z,90.31
2018-08-12T01:03:52.140Z,90.4
2018-08-12T01:04:52.133Z,90.59
2018-08-12T01:05:52.127Z,90.21
2018-08-12T01:06:52.120Z,90.5
2018-08-12T01:07:52.113Z,90.31
2018-08-12T01:08:52.107Z,90.5
2018-08-12T01:09:52.099Z,90.31
2018-08-12T01:10:52.093Z,90.5
2018-08-12T01:11:52.092Z,90.21
2018-08-12T01:12:51.828Z,90.21
2018-08-12T01:13:52.073Z,90.31
2018-08-12T01:14:52.066Z,90.31
2018-08-12T01:15:52.063Z,90.31
2018-08-12T01:16:52.054Z,90.31
2018-08-12T01:17:52.044Z,90.4
2018-08-12T01:18:51.786Z,90.88
2018-08-12T01:19:51.779Z,90.97
2018-08-12T01:20:52.024Z,90.78
2018-08-12T01:21:52.017Z,90.97
2018-08-12T01:22:52.023Z,90.78
2018-08-12T01:23:52.012Z,90.78
2018-08-12T01:24:52.006Z,90.78
2018-08-12T01:25:51.988Z,90.78
2018-08-12T01:26:51.981Z,90.97
2018-08-12T01:27:51.984Z,90.59
2018-08-12T01:28:51.970Z,90.97
2018-08-12T01:29:51.966Z,90.59
2018-08-12T01:30:51.956Z,90.69
2018-08-12T01:31:51.946Z,90.97
2018-08-12T01:32:51.946Z,90.5
2018-08-12T01:33:51.933Z,90.31
2018-08-12T01:34:51.928Z,90.4
2018-08-12T01:35:51.946Z,91.26
2018-08-12T01:36:51.660Z,91.16
2018-08-12T01:37:51.905Z,91.16
2018-08-12T01:38:51.901Z,90.88
2018-08-12T01:39:51.890Z,91.26
2018-08-12T01:40:51.888Z,91.16
2018-08-12T01:41:52.127Z,91.02
2018-08-12T01:42:51.872Z,91.02
2018-08-12T01:43:51.867Z,91.07
2018-08-12T01:44:51.604Z,91.26
2018-08-12T01:45:51.852Z,90.97
2018-08-12T01:46:51.842Z,90.83
2018-08-12T01:47:51.839Z,91.31
2018-08-12T01:48:51.842Z,91.16
2018-08-12T01:49:51.823Z,91.41
2018-08-12T01:50:51.826Z,91.12
2018-08-12T01:51:51.805Z,90.83
2018-08-12T01:52:51.798Z,91.12
2018-08-12T01:53:51.800Z,91.41
2018-08-12T01:54:51.785Z,91.41
2018-08-12T01:55:51.776Z,91.31
2018-08-12T01:56:51.772Z,91.41
2018-08-12T01:57:51.771Z,91.41
2018-08-12T01:58:51.771Z,91.21
2018-08-12T01:59:51.755Z,91.41
2018-08-12T02:00:51.744Z,91.21
2018-08-12T02:01:51.737Z,90.83
2018-08-12T02:02:51.736Z,91.16
2018-08-12T02:03:51.725Z,91.02
2018-08-12T02:04:51.715Z,91.26
2018-08-12T02:05:51.706Z,91.12
2018-08-12T02:06:51.701Z,91.02
2018-08-12T02:07:51.693Z,91.07
2018-08-12T02:08:51.686Z,90.93
2018-08-12T02:09:51.681Z,90.93
2018-08-12T02:10:51.671Z,91.36
2018-08-12T02:11:51.667Z,91.12
2018-08-12T02:12:51.906Z,90.83
2018-08-12T02:13:51.651Z,91.02
2018-08-12T02:14:51.648Z,91.07
2018-08-12T02:15:51.384Z,91.21
2018-08-12T02:16:51.628Z,91.02
2018-08-12T02:17:51.624Z,91.12
2018-08-12T02:18:51.614Z,91.41
2018-08-12T02:19:51.608Z,91.31
2018-08-12T02:20:51.605Z,91.41
2018-08-12T02:21:51.599Z,91.21
2018-08-12T02:22:51.587Z,91.31
2018-08-12T02:23:51.578Z,91.31
2018-08-12T02:24:51.573Z,91.02
2018-08-12T02:25:51.572Z,91.12
2018-08-12T02:26:51.561Z,91.31
2018-08-12T02:27:51.553Z,91.12
2018-08-12T02:28:51.542Z,91.5
2018-08-12T02:29:51.535Z,91.6
2018-08-12T02:30:51.530Z,91.02
2018-08-12T02:31:51.523Z,91.6
2018-08-12T02:32:51.264Z,91.88
2018-08-12T02:33:51.509Z,91.6
2018-08-12T02:34:51.504Z,91.78
2018-08-12T02:35:51.495Z,91.69
2018-08-12T02:36:51.490Z,91.69
2018-08-12T02:37:51.478Z,91.69
2018-08-12T02:38:51.470Z,91.88
2018-08-12T02:39:51.464Z,92.07
2018-08-12T02:40:51.459Z,92.07
2018-08-12T02:41:51.200Z,92.07
2018-08-12T02:42:51.443Z,92.17
2018-08-12T02:43:51.437Z,92.17
2018-08-12T02:44:51.177Z,92.55
2018-08-12T02:45:51.420Z,92.17
2018-08-12T02:46:51.417Z,92.17
2018-08-12T02:47:51.411Z,92.55
2018-08-12T02:48:51.401Z,92.46
2018-08-12T02:49:51.400Z,92.26
2018-08-12T02:50:51.388Z,92.55
2018-08-12T02:51:51.381Z,92.36
2018-08-12T02:52:51.373Z,92.36
2018-08-12T02:53:51.364Z,92.36
2018-08-12T02:54:51.363Z,92.36
2018-08-12T02:55:51.350Z,92.36
2018-08-12T02:56:51.342Z,92.36
2018-08-12T02:57:51.083Z,92.07
2018-08-12T02:58:51.336Z,92.26
2018-08-12T02:59:51.319Z,92.55
2018-08-12T03:00:51.313Z,92.65
2018-08-12T03:01:51.305Z,92.74
2018-08-12T03:02:51.301Z,92.46
2018-08-12T03:03:51.290Z,92.46
2018-08-12T03:04:51.292Z,92.17
2018-08-12T03:05:51.286Z,92.65
2018-08-12T03:06:51.269Z,92.07
2018-08-12T03:07:51.261Z,92.07
2018-08-12T03:08:51.253Z,92.65
2018-08-12T03:09:51.247Z,92.65
2018-08-12T03:10:51.240Z,92.07
2018-08-12T03:11:51.241Z,92.07
2018-08-12T03:12:50.972Z,92.07
2018-08-12T03:13:51.218Z,92.17
2018-08-12T03:14:51.211Z,92.74
2018-08-12T03:15:51.205Z,92.26
2018-08-12T03:16:50.943Z,92.74
2018-08-12T03:17:51.194Z,92.07
2018-08-12T03:18:51.181Z,92.36
2018-08-12T03:19:51.176Z,92.65
2018-08-12T03:20:50.918Z,92.36
2018-08-12T03:21:51.159Z,92.36
2018-08-12T03:22:51.151Z,92.17
2018-08-12T03:23:51.146Z,92.83
2018-08-12T03:24:51.145Z,92.17
2018-08-12T03:25:51.132Z,92.74
2018-08-12T03:26:51.122Z,92.26
2018-08-12T03:27:51.115Z,92.07
2018-08-12T03:28:51.108Z,92.31
2018-08-12T03:29:51.106Z,92.36
2018-08-12T03:30:51.099Z,92.36
2018-08-12T03:31:51.095Z,92.41
2018-08-12T03:32:51.078Z,92.55
2018-08-12T03:33:51.070Z,92.41
2018-08-12T03:34:51.064Z,92.5
2018-08-12T03:35:51.064Z,92.21
2018-08-12T03:36:51.055Z,92.02
2018-08-12T03:37:51.041Z,92.21
2018-08-12T03:38:51.036Z,92.02
2018-08-12T03:39:51.030Z,92.69
2018-08-12T03:40:51.021Z,92.41
2018-08-12T03:41:51.013Z,92.12
2018-08-12T03:42:51.006Z,92.02
2018-08-12T03:43:51.000Z,91.64
2018-08-12T03:44:50.991Z,91.93
2018-08-12T03:45:50.983Z,92.12
2018-08-12T03:46:50.978Z,92.02
2018-08-12T03:47:50.972Z,91.64
2018-08-12T03:48:51.071Z,91.74
2018-08-12T03:49:50.706Z,91.74
2018-08-12T03:50:50.950Z,91.74
2018-08-12T03:51:50.942Z,91.83
2018-08-12T03:52:50.935Z,91.64
2018-08-12T03:53:50.929Z,91.26
2018-08-12T03:54:50.925Z,91.74
2018-08-12T03:55:50.917Z,91.26
2018-08-12T03:56:50.909Z,91.45
2018-08-12T03:57:50.900Z,91.3
2018-08-12T03:58:50.912Z,91.36
2018-08-12T03:59:50.902Z,91.26
2018-08-12T04:00:50.880Z,91.5
2018-08-12T04:01:50.874Z,91.59
2018-08-12T04:02:50.866Z,91.69
2018-08-12T04:03:50.860Z,91.11
2018-08-12T04:04:50.602Z,91.4
2018-08-12T04:05:50.595Z,91.21
2018-08-12T04:06:50.842Z,90.54
2018-08-12T04:07:50.581Z,90.64
2018-08-12T04:08:50.831Z,91.11
2018-08-12T04:09:50.819Z,91.11
2018-08-12T04:10:50.814Z,90.64
2018-08-12T04:11:50.806Z,90.54
2018-08-12T04:12:50.800Z,90.73
2018-08-12T04:13:50.793Z,90.45
2018-08-12T04:14:50.792Z,90.01
2018-08-12T04:15:50.787Z,89.73
2018-08-12T04:16:50.774Z,89.82
2018-08-12T04:17:50.766Z,89.82
2018-08-12T04:18:50.839Z,89.34
2018-08-12T04:19:50.758Z,89.63
2018-08-12T04:20:50.748Z,89.53
2018-08-12T04:21:50.741Z,89.34
2018-08-12T04:22:50.737Z,89.29
2018-08-12T04:23:50.734Z,88.91
2018-08-12T04:24:50.724Z,89.01
2018-08-12T04:25:50.719Z,87.95
2018-08-12T04:26:50.719Z,88.19
2018-08-12T04:27:50.454Z,87.71
2018-08-12T04:28:50.700Z,87.43
2018-08-12T04:29:50.703Z,86.76
2018-08-12T04:30:50.689Z,86.51
2018-08-12T04:31:50.683Z,86.41
2018-08-12T04:32:50.679Z,86.22
2018-08-12T04:33:50.674Z,85.84
2018-08-12T04:34:50.416Z,85.08
2018-08-12T04:35:50.663Z,85.41
2018-08-12T04:36:50.659Z,84.83
2018-08-12T04:37:50.653Z,84.45
2018-08-12T04:38:50.396Z,83.92
2018-08-12T04:39:50.642Z,82.96
2018-08-12T04:40:50.641Z,82.32
2018-08-12T04:41:50.639Z,82.14
2018-08-12T04:42:50.629Z,81.31
2018-08-12T04:43:50.627Z,80.74
2018-08-12T04:44:50.624Z,79.91
2018-08-12T04:45:50.625Z,79.14
2018-08-12T04:46:50.615Z,78.42
2018-08-12T04:47:50.610Z,77.56
2018-08-12T04:48:50.862Z,76.82
2018-08-12T04:49:50.352Z,75.9
2018-08-12T04:50:50.351Z,74.75
2018-08-12T04:51:50.598Z,73.73
2018-08-12T04:52:50.596Z,72.42
2018-08-12T04:53:50.342Z,71.65
2018-08-12T04:54:50.591Z,70.34
2018-08-12T04:55:50.592Z,69.22
2018-08-12T04:56:50.588Z,68.35
2018-08-12T04:57:50.589Z,67.03
2018-08-12T04:58:50.333Z,66.11
2018-08-12T04:59:50.332Z,64.66
2018-08-12T05:00:50.334Z,63.54
2018-08-12T05:01:50.583Z,62.86
2018-08-12T05:02:50.581Z,61.74
2018-08-12T05:03:50.582Z,61.19
2018-08-12T05:04:50.580Z,59.55
2018-08-12T05:05:50.588Z,59
2018-08-12T05:06:50.584Z,57.57
2018-08-12T05:07:50.583Z,56.73
2018-08-12T05:08:50.590Z,55.77
2018-08-12T05:09:50.587Z,54.93
2018-08-12T05:10:50.589Z,53.77
2018-08-12T05:11:50.588Z,53.21
2018-08-12T05:12:50.590Z,52.46
2018-08-12T05:13:50.596Z,51.5
2018-08-12T05:14:50.595Z,50.94
2018-08-12T05:15:50.598Z,50.07
2018-08-12T05:16:50.598Z,49.8
2018-08-12T05:17:50.352Z,48.57
2018-08-12T05:18:50.607Z,48.27
2018-08-12T05:19:50.860Z,47.52
2018-08-12T05:20:50.362Z,46.84
2018-08-12T05:21:50.618Z,45.89
2018-08-12T05:22:50.668Z,45.7
2018-08-12T05:23:50.628Z,44.95
2018-08-12T05:24:50.629Z,44.75
2018-08-12T05:25:50.636Z,43.9
2018-08-12T05:26:50.641Z,43.61
2018-08-12T05:27:50.644Z,43.63
2018-08-12T05:28:50.649Z,42.66
2018-08-12T05:29:50.407Z,42.19
2018-08-12T05:30:50.662Z,41.51
2018-08-12T05:31:50.665Z,41.24
2018-08-12T05:32:50.671Z,40.47
2018-08-12T05:33:50.718Z,40.66
2018-08-12T05:34:50.681Z,40.19
2018-08-12T05:35:50.688Z,39.9
2018-08-12T05:36:50.442Z,38.95
2018-08-12T05:37:50.700Z,38.75
2018-08-12T05:38:50.710Z,38.17
2018-08-12T05:39:50.713Z,38.18
2018-08-12T05:40:50.469Z,37.99
2018-08-12T05:41:50.476Z,37.71
2018-08-12T05:42:50.733Z,37.52
2018-08-12T05:43:50.743Z,37.35
2018-08-12T05:44:50.496Z,36.96
2018-08-12T05:45:50.757Z,36.88
2018-08-12T05:46:50.763Z,36.29
2018-08-12T05:47:50.522Z,36.39
2018-08-12T05:48:50.779Z,36.11
2018-08-12T05:49:50.534Z,35.53
2018-08-12T05:50:50.802Z,35.16
2018-08-12T05:51:50.803Z,34.47
2018-08-12T05:52:50.808Z,34.28
2018-08-12T05:53:50.818Z,34
2018-08-12T05:54:50.828Z,33.51
2018-08-12T05:55:50.834Z,33.7
2018-08-12T05:56:50.846Z,33.8
2018-08-12T05:57:50.855Z,33.14
2018-08-12T05:58:50.863Z,32.84
2018-08-12T05:59:50.867Z,33.33
2018-08-12T06:00:50.878Z,33.33
2018-08-12T06:01:50.635Z,32.76
2018-08-12T06:02:51.072Z,31.98
2018-08-12T06:03:50.907Z,32.46
2018-08-12T06:04:50.914Z,32.56
2018-08-12T06:05:50.924Z,32.17
2018-08-12T06:06:50.945Z,32.17
2018-08-12T06:07:50.942Z,32.17
2018-08-12T06:08:51.030Z,32.27
2018-08-12T06:09:50.709Z,32.19
2018-08-12T06:10:50.969Z,31.99
2018-08-12T06:11:50.979Z,31.62
2018-08-12T06:12:50.988Z,31.13
2018-08-12T06:13:50.996Z,31.23
2018-08-12T06:14:50.756Z,30.36
2018-08-12T06:15:51.019Z,30.18
2018-08-12T06:16:51.042Z,30.18
2018-08-12T06:17:51.041Z,30.27
2018-08-12T06:18:51.052Z,30.19
2018-08-12T06:19:51.057Z,30
2018-08-12T06:20:51.066Z,30.1
2018-08-12T06:21:51.075Z,29.5
2018-08-12T06:22:51.094Z,29.91
2018-08-12T06:23:51.096Z,29.91
2018-08-12T06:24:50.856Z,29.33
2018-08-12T06:25:50.888Z,29.14
2018-08-12T06:26:51.128Z,28.65
2018-08-12T06:27:51.140Z,27.88
2018-08-12T06:28:50.899Z,28.16
2018-08-12T06:29:51.165Z,27.98
2018-08-12T06:30:51.177Z,28.08
2018-08-12T06:31:50.932Z,28.57
2018-08-12T06:32:51.197Z,28.27
2018-08-12T06:33:51.208Z,28.08
2018-08-12T06:34:51.227Z,27.98
2018-08-12T06:35:51.228Z,28.17
2018-08-12T06:36:51.239Z,27.98
2018-08-12T06:37:51.254Z,27.98
2018-08-12T06:38:51.262Z,27.47
2018-08-12T06:39:51.396Z,27.37
2018-08-12T06:40:51.285Z,27.95
2018-08-12T06:41:53.985Z,28.05
2018-08-12T06:42:51.313Z,28.25
2018-08-12T06:43:51.064Z,28.13
2018-08-12T06:44:51.330Z,28.63
2018-08-12T06:45:51.344Z,28.53
2018-08-12T06:46:51.348Z,28.53
2018-08-12T06:47:51.370Z,28.82
2018-08-12T06:49:51.380Z,28.64
2018-08-12T06:50:51.144Z,28.92
2018-08-12T06:51:51.623Z,28.53
2018-08-12T06:52:53.902Z,28.82
2018-08-12T06:53:51.423Z,28.51
2018-08-12T06:54:51.437Z,29.39
2018-08-12T06:55:51.448Z,29.3
2018-08-12T06:56:51.455Z,29
2018-08-12T06:57:51.468Z,28.91
2018-08-12T06:58:51.225Z,28.51
2018-08-12T06:59:51.487Z,28.91
2018-08-12T07:00:51.249Z,28.92
2018-08-12T07:01:51.257Z,28.53
2018-08-12T07:02:51.522Z,28.03
2018-08-12T07:03:51.536Z,27.95
2018-08-12T07:04:52.357Z,27.95
2018-08-12T07:05:51.301Z,28.15
2018-08-12T07:06:51.562Z,28.05
2018-08-12T07:08:51.588Z,28.06
2018-08-12T07:09:51.596Z,27.97
2018-08-12T07:10:51.356Z,27.98
2018-08-12T07:11:51.627Z,27.59
2018-08-12T07:12:51.378Z,27.39
2018-08-12T07:13:51.642Z,27.11
2018-08-12T07:14:51.655Z,27.31
2018-08-12T07:15:51.668Z,26.64
2018-08-12T07:16:51.679Z,26.25
2018-08-12T07:17:51.691Z,26.17
2018-08-12T07:19:06.377Z,25.39
2018-08-12T07:19:51.712Z,25.29
2018-08-12T07:20:51.724Z,24.9
2018-08-12T07:21:51.736Z,25.01
2018-08-12T07:22:51.751Z,24.52
2018-08-12T07:23:51.762Z,24.22
2018-08-12T07:24:52.172Z,24.43
2018-08-12T07:25:51.789Z,24.13
2018-08-12T07:26:51.806Z,24.13
2018-08-12T07:27:51.562Z,24.33
2018-08-12T07:28:51.827Z,24.13
2018-08-12T07:29:51.842Z,24.13
2018-08-12T07:30:51.853Z,23.94
2018-08-12T07:31:51.876Z,23.64
2018-08-12T07:32:52.001Z,23.93
2018-08-12T07:33:51.895Z,24.52
2018-08-12T07:34:51.909Z,24.53
2018-08-12T07:35:51.921Z,23.94
2018-08-12T07:36:51.937Z,24.04
2018-08-12T07:37:51.949Z,24.05
2018-08-12T07:38:52.097Z,23.65
2018-08-12T07:39:51.979Z,23.26
2018-08-12T07:40:51.991Z,23.75
2018-08-12T07:41:52.005Z,23.55
2018-08-12T07:42:52.020Z,24.15
2018-08-12T07:43:52.034Z,24.05
2018-08-12T07:44:52.051Z,24.15
2018-08-12T07:45:52.062Z,23.86
2018-08-12T07:46:52.082Z,22.89
2018-08-12T07:47:52.092Z,22.78
2018-08-12T07:48:52.216Z,22.5
2018-08-12T07:49:52.119Z,22.2
2018-08-12T07:50:52.134Z,22.2
2018-08-12T07:51:53.429Z,22.5
2018-08-12T07:52:52.180Z,22.5
2018-08-12T07:53:52.179Z,22.09
2018-08-12T07:54:52.196Z,22.38
2018-08-12T07:55:52.328Z,22.86
2018-08-12T07:56:52.227Z,23.44
2018-08-12T07:57:51.993Z,23.74
2018-08-12T07:58:52.256Z,23.44
2018-08-12T07:59:52.277Z,23.55
2018-08-12T08:00:52.037Z,23.55
2018-08-12T08:02:52.323Z,22.67
2018-08-12T08:03:52.085Z,22.28
2018-08-12T08:04:52.352Z,21.79
2018-08-12T08:05:52.370Z,22.19
2018-08-12T08:06:52.389Z,22.09
2018-08-12T08:07:52.407Z,22.56
2018-08-12T08:08:52.432Z,22.17
2018-08-12T08:09:52.435Z,22.27
2018-08-12T08:10:52.451Z,22.17
2018-08-12T08:13:52.506Z,20.9
2018-08-12T08:14:52.519Z,21.48
2018-08-12T08:15:52.538Z,22.17
2018-08-12T08:16:52.554Z,22.46
2018-08-12T08:17:52.574Z,22.26
2018-08-12T08:18:52.335Z,22.16
2018-08-12T08:19:52.920Z,21.78
2018-08-12T08:20:52.621Z,22.26
2018-08-12T08:21:52.640Z,22.46
2018-08-12T08:22:52.654Z,22.15
2018-08-12T08:23:52.668Z,23.04
2018-08-12T08:24:52.687Z,22.83
2018-08-12T08:25:53.038Z,23.8
2018-08-12T08:26:52.717Z,23.31
2018-08-12T08:27:52.730Z,23.6
2018-08-12T08:28:52.747Z,23.88
2018-08-12T08:29:52.761Z,23.88
2018-08-12T08:30:52.779Z,24.36
2018-08-12T08:31:54.326Z,24.75
2018-08-12T08:32:52.803Z,24.46
2018-08-12T08:33:52.566Z,24.93
2018-08-12T08:34:52.835Z,24.93
2018-08-12T08:35:52.850Z,25.23
2018-08-12T08:36:52.861Z,25.51
2018-08-12T08:37:52.637Z,25.9
2018-08-12T08:38:52.894Z,25.22
2018-08-12T08:39:52.901Z,25.7
2018-08-12T08:40:52.914Z,25.7
2018-08-12T08:41:52.934Z,25.29
2018-08-12T08:42:52.941Z,25.96
2018-08-12T08:43:52.726Z,26.54
2018-08-12T08:44:52.966Z,26.9
2018-08-12T08:45:52.979Z,28.16
2018-08-12T08:46:52.994Z,28.74
2018-08-12T08:47:53.039Z,28.72
2018-08-12T08:48:52.762Z,29.39
2018-08-12T08:49:52.817Z,30.26
2018-08-12T08:50:53.179Z,30.15
2018-08-12T08:51:53.045Z,30.44
2018-08-12T08:52:53.055Z,30.62
2018-08-12T08:53:53.064Z,31.19
2018-08-12T08:54:53.073Z,31.87
2018-08-12T08:55:53.454Z,32.24
2018-08-12T08:56:53.092Z,32.13
2018-08-12T08:57:53.349Z,33.18
2018-08-12T08:58:53.106Z,33.48
2018-08-12T08:59:53.118Z,33.67
2018-08-12T09:00:52.871Z,34.05
2018-08-12T09:01:53.131Z,33.46
2018-08-12T09:02:53.138Z,33.15
2018-08-12T09:03:53.143Z,32.96
2018-08-12T09:04:52.897Z,32.57
2018-08-12T09:05:53.154Z,33.04
2018-08-12T09:06:53.161Z,32.65
2018-08-12T09:07:53.286Z,32.26
2018-08-12T09:08:53.149Z,32.64
2018-08-12T09:09:53.178Z,31.85
2018-08-12T09:10:53.181Z,32.32
2018-08-12T09:11:53.195Z,32.73
2018-08-12T09:12:53.191Z,33.11
2018-08-12T09:13:53.202Z,33.29
2018-08-12T09:14:52.949Z,33.39
2018-08-12T09:15:53.206Z,33.57
2018-08-12T09:16:52.958Z,33.47
2018-08-12T09:17:53.234Z,34.16
2018-08-12T09:18:53.219Z,35.01
2018-08-12T09:19:53.234Z,35.01
2018-08-12T09:20:53.226Z,34.72
2018-08-12T09:21:52.976Z,35.21
2018-08-12T09:22:53.232Z,35.88
2018-08-12T09:23:53.023Z,35.3
2018-08-12T09:24:53.240Z,35.11
2018-08-12T09:25:53.242Z,34.91
2018-08-12T09:26:52.993Z,34.91
2018-08-12T09:27:53.248Z,34.91
2018-08-12T09:28:53.500Z,34.81
2018-08-12T09:29:53.001Z,34.81
2018-08-12T09:30:53.258Z,34.7
2018-08-12T09:31:53.258Z,34.61
2018-08-12T09:32:53.261Z,34.7
2018-08-12T09:33:53.262Z,34.99
2018-08-12T09:34:53.268Z,34.8
2018-08-12T09:35:53.275Z,35.96
2018-08-12T09:36:53.273Z,36.64
2018-08-12T09:37:53.023Z,35.86
2018-08-12T09:38:53.274Z,34.7
2018-08-12T09:39:53.281Z,35.27
2018-08-12T09:40:53.029Z,35.86
2018-08-12T09:41:53.296Z,36.14
2018-08-12T09:42:53.285Z,35.36
2018-08-12T09:43:53.036Z,35.85
2018-08-12T09:44:53.293Z,35.85
2018-08-12T09:45:53.040Z,35.85
2018-08-12T09:46:53.294Z,35.85
2018-08-12T09:47:53.299Z,35.94
2018-08-12T09:48:53.047Z,36.43
2018-08-12T09:49:53.299Z,36.62
2018-08-12T09:50:53.305Z,37.11
2018-08-12T09:51:53.659Z,36.33
2018-08-12T09:52:53.309Z,35.85
2018-08-12T09:53:53.306Z,35.66
2018-08-12T09:54:53.309Z,36.62
2018-08-12T09:55:53.312Z,36.72
2018-08-12T09:56:53.312Z,36.82
2018-08-12T09:57:53.315Z,36.62
2018-08-12T09:58:53.066Z,36.43
2018-08-12T09:59:53.326Z,36.43
2018-08-12T10:00:53.326Z,35.75
2018-08-12T10:01:53.071Z,36.04
2018-08-12T10:02:53.077Z,37.11
2018-08-12T10:03:53.075Z,36.33
2018-08-12T10:04:53.336Z,36.33
2018-08-12T10:05:53.329Z,35.46
2018-08-12T10:06:53.331Z,34.69
2018-08-12T10:07:53.337Z,35.85
2018-08-12T10:08:53.333Z,35.75
2018-08-12T10:09:53.336Z,35.85
2018-08-12T10:10:53.087Z,36.14
2018-08-12T10:11:53.340Z,35.57
2018-08-12T10:12:53.343Z,34.41
2018-08-12T10:13:53.345Z,34.59
2018-08-12T10:14:53.345Z,34.88
2018-08-12T10:15:53.347Z,34.59
2018-08-12T10:16:53.347Z,34.69
2018-08-12T10:17:53.098Z,34.88
2018-08-12T10:18:53.100Z,34.97
2018-08-12T10:19:54.830Z,34.78
2018-08-12T10:20:53.354Z,35.27
2018-08-12T10:21:53.105Z,34.89
2018-08-12T10:22:53.361Z,34.89
2018-08-12T10:23:53.361Z,34.7
2018-08-12T10:24:53.369Z,34.41
2018-08-12T10:25:53.362Z,34.22
2018-08-12T10:26:53.364Z,34.31
2018-08-12T10:27:53.369Z,34.22
2018-08-12T10:28:53.369Z,34.51
2018-08-12T10:29:53.370Z,34.12
2018-08-12T10:30:53.370Z,33.25
2018-08-12T10:31:53.380Z,33.06
2018-08-12T10:32:53.122Z,33.44
2018-08-12T10:33:53.375Z,33.64
2018-08-12T10:34:53.378Z,33.92
2018-08-12T10:35:53.385Z,34.31
2018-08-12T10:36:53.380Z,34.41
2018-08-12T10:37:53.382Z,34.7
2018-08-12T10:38:53.384Z,33.44
2018-08-12T10:39:53.134Z,33.34
2018-08-12T10:40:53.387Z,34.7
2018-08-12T10:41:53.389Z,34.31
2018-08-12T10:42:53.390Z,33.54
2018-08-12T10:43:53.405Z,33.26
2018-08-12T10:44:53.395Z,34.23
2018-08-12T10:45:53.397Z,33.26
2018-08-12T10:46:53.401Z,33.17
2018-08-12T10:47:53.411Z,32.2
2018-08-12T10:48:53.465Z,32.68
2018-08-12T10:49:53.404Z,33.07
2018-08-12T10:50:53.656Z,32.59
2018-08-12T10:51:53.411Z,32.78
2018-08-12T10:52:53.409Z,32.59
2018-08-12T10:53:53.415Z,32.78
2018-08-12T10:54:53.162Z,32.87
2018-08-12T10:55:53.164Z,33.07
2018-08-12T10:56:53.165Z,33.26
2018-08-12T10:57:53.419Z,32.87
2018-08-12T10:58:53.169Z,32.97
2018-08-12T10:59:53.424Z,32.31
2018-08-12T11:00:53.426Z,32.41
2018-08-12T11:01:53.427Z,32.21
2018-08-12T11:02:53.428Z,31.53
2018-08-12T11:03:53.430Z,32.02
2018-08-12T11:04:53.438Z,31.82
2018-08-12T11:05:53.439Z,31.15
2018-08-12T11:06:53.184Z,32.12
2018-08-12T11:07:53.440Z,32.02
2018-08-12T11:08:53.442Z,32.31
2018-08-12T11:09:53.451Z,32.42
2018-08-12T11:10:53.446Z,31.74
2018-08-12T11:11:53.195Z,31.35
2018-08-12T11:12:53.700Z,31.55
2018-08-12T11:13:53.459Z,30.87
2018-08-12T11:14:53.456Z,31.84
2018-08-12T11:15:53.461Z,32.81
2018-08-12T11:16:53.458Z,31.84
2018-08-12T11:17:53.459Z,30.97
2018-08-12T11:18:53.462Z,31.07
2018-08-12T11:19:53.472Z,30.97
2018-08-12T11:20:53.472Z,31.07
2018-08-12T11:21:53.474Z,30.97
2018-08-12T11:22:53.474Z,30.97
2018-08-12T11:23:53.475Z,31.84
2018-08-12T11:24:53.475Z,31.74
2018-08-12T11:25:53.227Z,31.26
2018-08-12T11:26:53.481Z,31.16
2018-08-12T11:27:53.484Z,30.97
2018-08-12T11:28:53.485Z,30.77
2018-08-12T11:29:53.236Z,30.68
2018-08-12T11:30:53.244Z,31.35
2018-08-12T11:31:53.497Z,31.65
2018-08-12T11:32:53.494Z,30.87
2018-08-12T11:33:53.246Z,30.58
2018-08-12T11:34:53.702Z,29.8
2018-08-12T11:35:53.502Z,29.9
2018-08-12T11:36:53.261Z,30.98
2018-08-12T11:37:53.510Z,30.48
2018-08-12T11:38:53.257Z,30.5
2018-08-12T11:39:53.512Z,30.01
2018-08-12T11:40:53.514Z,30.11
2018-08-12T11:41:53.520Z,29.91
2018-08-12T11:42:53.518Z,30.11
2018-08-12T11:43:53.526Z,30.79
2018-08-12T11:44:53.523Z,30.3
2018-08-12T11:45:53.530Z,30.4
2018-08-12T11:46:53.528Z,29.82
2018-08-12T11:47:53.531Z,29.72
2018-08-12T11:48:53.281Z,30.11
2018-08-12T11:49:53.535Z,29.62
2018-08-12T11:50:53.538Z,29.82
2018-08-12T11:51:53.540Z,30.11
2018-08-12T11:52:53.544Z,30.21
2018-08-12T11:53:53.294Z,30.21
2018-08-12T11:54:53.550Z,30.11
2018-08-12T11:55:53.553Z,30.01
2018-08-12T11:56:53.629Z,30.11
2018-08-12T11:57:53.557Z,30.48
2018-08-12T11:58:53.560Z,30.19
2018-08-12T11:59:53.309Z,30
2018-08-12T12:00:53.562Z,30.68
2018-08-12T12:01:53.564Z,29.9
2018-08-12T12:02:53.577Z,30
2018-08-12T12:03:53.575Z,29.41
2018-08-12T12:04:53.580Z,29.41
2018-08-12T12:05:53.320Z,29.41
2018-08-12T12:06:53.584Z,30
2018-08-12T12:07:53.579Z,30.77
2018-08-12T12:08:53.582Z,30.29
2018-08-12T12:09:53.581Z,30.29
2018-08-12T12:10:53.333Z,30.19
2018-08-12T12:11:53.585Z,30.19
2018-08-12T12:12:53.593Z,29.71
2018-08-12T12:13:53.591Z,29.41
2018-08-12T12:14:53.591Z,29.32
2018-08-12T12:15:53.346Z,29.61
2018-08-12T12:16:53.344Z,29.71
2018-08-12T12:17:53.598Z,29.71
2018-08-12T12:18:53.602Z,29.32
2018-08-12T12:19:53.350Z,29.22
2018-08-12T12:20:53.603Z,29.9
2018-08-12T12:21:53.356Z,29.61
2018-08-12T12:22:53.611Z,29.51
2018-08-12T12:23:53.611Z,29.21
2018-08-12T12:24:53.615Z,29.98
2018-08-12T12:25:53.724Z,29.98
2018-08-12T12:26:53.365Z,29.21
2018-08-12T12:27:53.619Z,29.21
2018-08-12T12:28:53.627Z,29.5
2018-08-12T12:29:53.626Z,29.69
2018-08-12T12:30:53.632Z,29.5
2018-08-12T12:31:53.376Z,30.08
2018-08-12T12:32:53.684Z,29.88
2018-08-12T12:33:53.379Z,29.6
2018-08-12T12:34:53.632Z,29.4
2018-08-12T12:35:53.636Z,29.4
2018-08-12T12:36:53.638Z,29.02
2018-08-12T12:37:53.388Z,29.3
2018-08-12T12:38:53.639Z,29.5
2018-08-12T12:39:53.641Z,30.08
2018-08-12T12:40:53.894Z,30.08
2018-08-12T12:41:53.645Z,29.69
2018-08-12T12:42:53.842Z,29.88
2018-08-12T12:43:53.649Z,29.11
2018-08-12T12:44:53.398Z,29.11
2018-08-12T12:45:53.653Z,28.72
2018-08-12T12:46:53.402Z,28.81
2018-08-12T12:47:53.656Z,29.6
2018-08-12T12:48:53.656Z,29.6
2018-08-12T12:49:53.660Z,29.69
2018-08-12T12:50:53.665Z,29.69
2018-08-12T12:51:53.663Z,30.27
2018-08-12T12:52:53.666Z,29.98
2018-08-12T12:53:53.670Z,29.4
2018-08-12T12:54:53.420Z,29.01
2018-08-12T12:55:53.671Z,29.5
2018-08-12T12:56:53.423Z,29.3
2018-08-12T12:57:53.675Z,29.4
2018-08-12T12:58:53.675Z,29.21
2018-08-12T12:59:53.678Z,30.08
2018-08-12T13:00:53.680Z,29.01